sensor_id;sensor_type;location;lat;lon;timestamp;P1;durP1;ratioP1;P2;durP2;ratioP2
69847;SDS011;57143;55.940;37.496;2023-05-29T00:00:32;6.97;;;2.03;;
69847;SDS011;57143;55.940;37.496;2023-05-29T00:03:00;8.45;;;2.35;;
69847;SDS011;57143;55.940;37.496;2023-05-29T00:05:27;7.17;;;2.07;;
69847;SDS011;57143;55.940;37.496;2023-05-29T00:07:55;6.35;;;1.98;;
69847;SDS011;57143;55.940;37.496;2023-05-29T00:10:23;6.15;;;1.73;;
69847;SDS011;57143;55.940;37.496;2023-05-29T00:12:50;7.10;;;1.80;;
69847;SDS011;57143;55.940;37.496;2023-05-29T00:15:17;5.25;;;1.77;;
69847;SDS011;57143;55.940;37.496;2023-05-29T00:17:45;7.40;;;1.97;;
69847;SDS011;57143;55.940;37.496;2023-05-29T00:20:12;6.93;;;1.60;;
69847;SDS011;57143;55.940;37.496;2023-05-29T00:22:40;8.70;;;2.25;;
69847;SDS011;57143;55.940;37.496;2023-05-29T00:25:08;6.95;;;1.88;;
69847;SDS011;57143;55.940;37.496;2023-05-29T00:27:36;5.97;;;1.77;;
69847;SDS011;57143;55.940;37.496;2023-05-29T00:30:03;6.57;;;2.07;;
69847;SDS011;57143;55.940;37.496;2023-05-29T00:32:35;6.88;;;1.90;;
69847;SDS011;57143;55.940;37.496;2023-05-29T00:35:02;7.75;;;2.05;;
69847;SDS011;57143;55.940;37.496;2023-05-29T00:37:30;5.85;;;2.03;;
69847;SDS011;57143;55.940;37.496;2023-05-29T00:39:58;6.28;;;2.03;;
69847;SDS011;57143;55.940;37.496;2023-05-29T00:42:27;6.13;;;1.70;;
69847;SDS011;57143;55.940;37.496;2023-05-29T00:44:54;5.35;;;1.60;;
69847;SDS011;57143;55.940;37.496;2023-05-29T00:47:22;6.97;;;2.30;;
69847;SDS011;57143;55.940;37.496;2023-05-29T00:49:49;7.28;;;1.75;;
69847;SDS011;57143;55.940;37.496;2023-05-29T00:52:17;5.65;;;1.83;;
69847;SDS011;57143;55.940;37.496;2023-05-29T00:54:46;6.70;;;2.00;;
69847;SDS011;57143;55.940;37.496;2023-05-29T00:57:13;6.40;;;1.90;;
69847;SDS011;57143;55.940;37.496;2023-05-29T00:59:44;8.45;;;2.22;;
69847;SDS011;57143;55.940;37.496;2023-05-29T01:02:14;6.47;;;2.00;;
69847;SDS011;57143;55.940;37.496;2023-05-29T01:04:42;6.63;;;1.92;;
69847;SDS011;57143;55.940;37.496;2023-05-29T01:07:11;7.87;;;2.37;;
69847;SDS011;57143;55.940;37.496;2023-05-29T01:09:39;5.72;;;1.95;;
69847;SDS011;57143;55.940;37.496;2023-05-29T01:12:13;6.47;;;2.30;;
69847;SDS011;57143;55.940;37.496;2023-05-29T01:14:55;9.07;;;2.35;;
69847;SDS011;57143;55.940;37.496;2023-05-29T01:17:37;9.43;;;2.30;;
69847;SDS011;57143;55.940;37.496;2023-05-29T01:20:15;6.70;;;2.00;;
69847;SDS011;57143;55.940;37.496;2023-05-29T01:23:21;7.90;;;2.35;;
69847;SDS011;57143;55.940;37.496;2023-05-29T01:25:58;11.57;;;2.30;;
69847;SDS011;57143;55.940;37.496;2023-05-29T01:28:40;10.93;;;2.28;;
69847;SDS011;57143;55.940;37.496;2023-05-29T01:31:09;6.88;;;2.20;;
69847;SDS011;57143;55.940;37.496;2023-05-29T01:33:38;7.63;;;2.20;;
69847;SDS011;57143;55.940;37.496;2023-05-29T01:36:07;6.63;;;2.00;;
69847;SDS011;57143;55.940;37.496;2023-05-29T01:38:36;5.97;;;2.45;;
69847;SDS011;57143;55.940;37.496;2023-05-29T01:41:03;7.47;;;2.03;;
69847;SDS011;57143;55.940;37.496;2023-05-29T01:43:31;6.88;;;2.25;;
69847;SDS011;57143;55.940;37.496;2023-05-29T01:46:00;6.20;;;2.10;;
69847;SDS011;57143;55.940;37.496;2023-05-29T01:48:28;10.35;;;2.80;;
69847;SDS011;57143;55.940;37.496;2023-05-29T01:50:55;7.80;;;2.53;;
69847;SDS011;57143;55.940;37.496;2023-05-29T01:53:24;8.07;;;2.80;;
69847;SDS011;57143;55.940;37.496;2023-05-29T01:55:51;8.95;;;2.80;;
69847;SDS011;57143;55.940;37.496;2023-05-29T01:58:19;8.13;;;2.80;;
69847;SDS011;57143;55.940;37.496;2023-05-29T02:00:48;6.75;;;2.72;;
69847;SDS011;57143;55.940;37.496;2023-05-29T02:03:32;7.28;;;2.92;;
69847;SDS011;57143;55.940;37.496;2023-05-29T02:06:00;7.55;;;2.83;;
69847;SDS011;57143;55.940;37.496;2023-05-29T02:08:27;8.27;;;2.63;;
69847;SDS011;57143;55.940;37.496;2023-05-29T02:10:54;6.60;;;2.73;;
69847;SDS011;57143;55.940;37.496;2023-05-29T02:13:22;8.75;;;2.85;;
69847;SDS011;57143;55.940;37.496;2023-05-29T02:15:50;7.32;;;2.95;;
69847;SDS011;57143;55.940;37.496;2023-05-29T02:18:17;9.35;;;3.03;;
69847;SDS011;57143;55.940;37.496;2023-05-29T02:20:47;9.30;;;2.55;;
69847;SDS011;57143;55.940;37.496;2023-05-29T02:23:14;11.60;;;3.00;;
69847;SDS011;57143;55.940;37.496;2023-05-29T02:25:42;6.72;;;2.63;;
69847;SDS011;57143;55.940;37.496;2023-05-29T02:28:09;8.80;;;2.40;;
69847;SDS011;57143;55.940;37.496;2023-05-29T02:30:36;8.68;;;3.05;;
69847;SDS011;57143;55.940;37.496;2023-05-29T02:33:04;8.95;;;2.60;;
69847;SDS011;57143;55.940;37.496;2023-05-29T02:35:32;9.40;;;2.53;;
69847;SDS011;57143;55.940;37.496;2023-05-29T02:38:01;8.50;;;2.47;;
69847;SDS011;57143;55.940;37.496;2023-05-29T02:40:28;9.13;;;2.80;;
69847;SDS011;57143;55.940;37.496;2023-05-29T02:42:56;7.88;;;3.10;;
69847;SDS011;57143;55.940;37.496;2023-05-29T02:45:23;7.60;;;2.13;;
69847;SDS011;57143;55.940;37.496;2023-05-29T02:47:50;8.33;;;2.33;;
69847;SDS011;57143;55.940;37.496;2023-05-29T02:50:39;6.18;;;2.10;;
69847;SDS011;57143;55.940;37.496;2023-05-29T02:53:20;7.32;;;2.70;;
69847;SDS011;57143;55.940;37.496;2023-05-29T02:55:47;8.65;;;2.38;;
69847;SDS011;57143;55.940;37.496;2023-05-29T02:58:16;6.60;;;2.42;;
69847;SDS011;57143;55.940;37.496;2023-05-29T03:00:43;7.07;;;2.30;;
69847;SDS011;57143;55.940;37.496;2023-05-29T03:03:11;8.27;;;2.88;;
69847;SDS011;57143;55.940;37.496;2023-05-29T03:05:38;7.03;;;2.00;;
69847;SDS011;57143;55.940;37.496;2023-05-29T03:08:05;5.65;;;2.10;;
69847;SDS011;57143;55.940;37.496;2023-05-29T03:10:34;8.23;;;2.30;;
69847;SDS011;57143;55.940;37.496;2023-05-29T03:13:01;8.90;;;2.40;;
69847;SDS011;57143;55.940;37.496;2023-05-29T03:15:29;6.85;;;2.25;;
69847;SDS011;57143;55.940;37.496;2023-05-29T03:17:56;5.85;;;1.83;;
69847;SDS011;57143;55.940;37.496;2023-05-29T03:20:23;7.95;;;2.95;;
69847;SDS011;57143;55.940;37.496;2023-05-29T03:22:51;5.82;;;1.95;;
69847;SDS011;57143;55.940;37.496;2023-05-29T03:25:18;6.73;;;2.70;;
69847;SDS011;57143;55.940;37.496;2023-05-29T03:27:48;7.95;;;2.25;;
69847;SDS011;57143;55.940;37.496;2023-05-29T03:30:15;6.80;;;2.30;;
69847;SDS011;57143;55.940;37.496;2023-05-29T03:32:44;8.15;;;2.40;;
69847;SDS011;57143;55.940;37.496;2023-05-29T03:35:11;7.05;;;2.40;;
69847;SDS011;57143;55.940;37.496;2023-05-29T03:37:38;6.33;;;2.00;;
69847;SDS011;57143;55.940;37.496;2023-05-29T03:40:06;6.00;;;2.10;;
69847;SDS011;57143;55.940;37.496;2023-05-29T03:42:34;7.00;;;2.40;;
69847;SDS011;57143;55.940;37.496;2023-05-29T03:45:03;6.88;;;2.45;;
69847;SDS011;57143;55.940;37.496;2023-05-29T03:47:31;9.35;;;2.38;;
69847;SDS011;57143;55.940;37.496;2023-05-29T03:49:58;7.03;;;2.30;;
69847;SDS011;57143;55.940;37.496;2023-05-29T03:52:25;6.57;;;2.10;;
69847;SDS011;57143;55.940;37.496;2023-05-29T03:54:52;7.38;;;2.40;;
69847;SDS011;57143;55.940;37.496;2023-05-29T03:57:32;6.95;;;2.30;;
69847;SDS011;57143;55.940;37.496;2023-05-29T04:00:22;7.18;;;2.45;;
69847;SDS011;57143;55.940;37.496;2023-05-29T04:02:49;7.27;;;2.30;;
69847;SDS011;57143;55.940;37.496;2023-05-29T04:05:16;7.22;;;2.30;;
69847;SDS011;57143;55.940;37.496;2023-05-29T04:07:44;7.40;;;2.22;;
69847;SDS011;57143;55.940;37.496;2023-05-29T04:10:11;5.47;;;2.78;;
69847;SDS011;57143;55.940;37.496;2023-05-29T04:12:38;6.47;;;2.00;;
69847;SDS011;57143;55.940;37.496;2023-05-29T04:15:06;6.20;;;2.13;;
69847;SDS011;57143;55.940;37.496;2023-05-29T04:17:35;7.50;;;2.30;;
69847;SDS011;57143;55.940;37.496;2023-05-29T04:20:03;5.35;;;2.20;;
69847;SDS011;57143;55.940;37.496;2023-05-29T04:22:34;6.03;;;2.20;;
69847;SDS011;57143;55.940;37.496;2023-05-29T04:25:02;5.80;;;2.60;;
69847;SDS011;57143;55.940;37.496;2023-05-29T04:28:05;6.27;;;1.93;;
69847;SDS011;57143;55.940;37.496;2023-05-29T04:30:32;8.50;;;2.33;;
69847;SDS011;57143;55.940;37.496;2023-05-29T04:33:01;7.00;;;2.20;;
69847;SDS011;57143;55.940;37.496;2023-05-29T04:35:29;6.70;;;2.40;;
69847;SDS011;57143;55.940;37.496;2023-05-29T04:37:56;6.38;;;2.17;;
69847;SDS011;57143;55.940;37.496;2023-05-29T04:40:23;5.33;;;2.20;;
69847;SDS011;57143;55.940;37.496;2023-05-29T04:42:51;5.43;;;2.22;;
69847;SDS011;57143;55.940;37.496;2023-05-29T04:45:19;6.50;;;2.33;;
69847;SDS011;57143;55.940;37.496;2023-05-29T04:47:47;6.15;;;2.35;;
69847;SDS011;57143;55.940;37.496;2023-05-29T04:50:16;10.35;;;2.25;;
69847;SDS011;57143;55.940;37.496;2023-05-29T04:52:43;6.57;;;2.33;;
69847;SDS011;57143;55.940;37.496;2023-05-29T04:55:10;5.57;;;2.03;;
69847;SDS011;57143;55.940;37.496;2023-05-29T04:57:38;5.07;;;2.10;;
69847;SDS011;57143;55.940;37.496;2023-05-29T05:00:06;6.43;;;2.20;;
69847;SDS011;57143;55.940;37.496;2023-05-29T05:02:40;4.80;;;2.13;;
69847;SDS011;57143;55.940;37.496;2023-05-29T05:05:08;5.50;;;2.30;;
69847;SDS011;57143;55.940;37.496;2023-05-29T05:07:37;5.55;;;2.15;;
69847;SDS011;57143;55.940;37.496;2023-05-29T05:10:05;7.53;;;2.22;;
69847;SDS011;57143;55.940;37.496;2023-05-29T05:12:33;5.95;;;2.30;;
69847;SDS011;57143;55.940;37.496;2023-05-29T05:15:00;4.82;;;1.92;;
69847;SDS011;57143;55.940;37.496;2023-05-29T05:17:30;4.50;;;1.67;;
69847;SDS011;57143;55.940;37.496;2023-05-29T05:19:58;4.70;;;1.95;;
69847;SDS011;57143;55.940;37.496;2023-05-29T05:22:25;7.35;;;3.97;;
69847;SDS011;57143;55.940;37.496;2023-05-29T05:24:54;5.95;;;2.22;;
69847;SDS011;57143;55.940;37.496;2023-05-29T05:27:21;7.00;;;2.25;;
69847;SDS011;57143;55.940;37.496;2023-05-29T05:29:49;5.53;;;1.60;;
69847;SDS011;57143;55.940;37.496;2023-05-29T05:32:16;5.32;;;2.08;;
69847;SDS011;57143;55.940;37.496;2023-05-29T05:34:43;5.15;;;1.92;;
69847;SDS011;57143;55.940;37.496;2023-05-29T05:37:11;5.78;;;2.05;;
69847;SDS011;57143;55.940;37.496;2023-05-29T05:39:38;5.05;;;2.00;;
69847;SDS011;57143;55.940;37.496;2023-05-29T05:42:07;6.03;;;2.07;;
69847;SDS011;57143;55.940;37.496;2023-05-29T05:44:34;4.57;;;2.17;;
69847;SDS011;57143;55.940;37.496;2023-05-29T05:47:01;5.32;;;2.20;;
69847;SDS011;57143;55.940;37.496;2023-05-29T05:49:29;4.90;;;1.80;;
69847;SDS011;57143;55.940;37.496;2023-05-29T05:51:56;4.82;;;2.08;;
69847;SDS011;57143;55.940;37.496;2023-05-29T05:54:23;4.27;;;1.50;;
69847;SDS011;57143;55.940;37.496;2023-05-29T05:56:50;6.25;;;2.17;;
69847;SDS011;57143;55.940;37.496;2023-05-29T05:59:19;5.85;;;2.22;;
69847;SDS011;57143;55.940;37.496;2023-05-29T06:01:46;5.10;;;1.80;;
69847;SDS011;57143;55.940;37.496;2023-05-29T06:04:13;12.20;;;3.70;;
69847;SDS011;57143;55.940;37.496;2023-05-29T06:06:40;7.20;;;2.20;;
69847;SDS011;57143;55.940;37.496;2023-05-29T06:09:08;6.20;;;3.17;;
69847;SDS011;57143;55.940;37.496;2023-05-29T06:11:36;4.88;;;2.38;;
69847;SDS011;57143;55.940;37.496;2023-05-29T06:14:04;5.15;;;1.67;;
69847;SDS011;57143;55.940;37.496;2023-05-29T06:16:33;6.60;;;1.83;;
69847;SDS011;57143;55.940;37.496;2023-05-29T06:19:04;7.10;;;1.50;;
69847;SDS011;57143;55.940;37.496;2023-05-29T06:21:32;4.40;;;1.80;;
69847;SDS011;57143;55.940;37.496;2023-05-29T06:23:59;5.00;;;1.65;;
69847;SDS011;57143;55.940;37.496;2023-05-29T06:26:26;4.45;;;1.60;;
69847;SDS011;57143;55.940;37.496;2023-05-29T06:28:54;5.38;;;1.60;;
69847;SDS011;57143;55.940;37.496;2023-05-29T06:31:21;4.50;;;1.80;;
69847;SDS011;57143;55.940;37.496;2023-05-29T06:33:50;4.60;;;1.80;;
69847;SDS011;57143;55.940;37.496;2023-05-29T06:36:17;5.18;;;1.45;;
69847;SDS011;57143;55.940;37.496;2023-05-29T06:38:45;5.10;;;1.48;;
69847;SDS011;57143;55.940;37.496;2023-05-29T06:41:14;4.25;;;1.45;;
69847;SDS011;57143;55.940;37.496;2023-05-29T06:43:41;3.93;;;1.40;;
69847;SDS011;57143;55.940;37.496;2023-05-29T06:46:09;4.13;;;1.38;;
69847;SDS011;57143;55.940;37.496;2023-05-29T06:48:36;5.82;;;1.85;;
69847;SDS011;57143;55.940;37.496;2023-05-29T06:51:05;5.32;;;1.80;;
69847;SDS011;57143;55.940;37.496;2023-05-29T06:53:34;4.93;;;1.92;;
69847;SDS011;57143;55.940;37.496;2023-05-29T06:56:02;5.10;;;1.77;;
69847;SDS011;57143;55.940;37.496;2023-05-29T06:58:29;4.60;;;1.83;;
69847;SDS011;57143;55.940;37.496;2023-05-29T07:04:18;4.30;;;1.63;;
69847;SDS011;57143;55.940;37.496;2023-05-29T07:06:47;4.28;;;1.60;;
69847;SDS011;57143;55.940;37.496;2023-05-29T07:09:14;4.00;;;1.30;;
69847;SDS011;57143;55.940;37.496;2023-05-29T07:11:42;4.35;;;1.67;;
69847;SDS011;57143;55.940;37.496;2023-05-29T07:14:09;6.28;;;1.95;;
69847;SDS011;57143;55.940;37.496;2023-05-29T07:16:36;4.90;;;1.70;;
69847;SDS011;57143;55.940;37.496;2023-05-29T07:19:04;5.70;;;1.90;;
69847;SDS011;57143;55.940;37.496;2023-05-29T07:21:31;5.33;;;1.70;;
69847;SDS011;57143;55.940;37.496;2023-05-29T07:24:00;6.68;;;1.70;;
69847;SDS011;57143;55.940;37.496;2023-05-29T07:26:27;5.07;;;1.98;;
69847;SDS011;57143;55.940;37.496;2023-05-29T07:28:57;5.53;;;1.60;;
69847;SDS011;57143;55.940;37.496;2023-05-29T07:31:24;4.47;;;1.80;;
69847;SDS011;57143;55.940;37.496;2023-05-29T07:33:51;4.17;;;1.70;;
69847;SDS011;57143;55.940;37.496;2023-05-29T07:36:18;4.65;;;1.60;;
69847;SDS011;57143;55.940;37.496;2023-05-29T07:38:46;4.50;;;1.90;;
69847;SDS011;57143;55.940;37.496;2023-05-29T07:41:15;4.75;;;1.75;;
69847;SDS011;57143;55.940;37.496;2023-05-29T07:43:42;4.80;;;1.90;;
69847;SDS011;57143;55.940;37.496;2023-05-29T07:46:11;5.40;;;2.30;;
69847;SDS011;57143;55.940;37.496;2023-05-29T07:48:38;4.93;;;1.80;;
69847;SDS011;57143;55.940;37.496;2023-05-29T07:51:05;6.38;;;1.90;;
69847;SDS011;57143;55.940;37.496;2023-05-29T07:53:35;5.38;;;1.73;;
69847;SDS011;57143;55.940;37.496;2023-05-29T07:56:02;4.57;;;1.95;;
69847;SDS011;57143;55.940;37.496;2023-05-29T07:58:31;7.20;;;1.23;;
69847;SDS011;57143;55.940;37.496;2023-05-29T08:00:58;5.18;;;2.00;;
69847;SDS011;57143;55.940;37.496;2023-05-29T08:03:25;6.82;;;1.50;;
69847;SDS011;57143;55.940;37.496;2023-05-29T08:05:52;4.38;;;1.50;;
69847;SDS011;57143;55.940;37.496;2023-05-29T08:08:20;4.68;;;1.70;;
69847;SDS011;57143;55.940;37.496;2023-05-29T08:10:47;4.83;;;1.53;;
69847;SDS011;57143;55.940;37.496;2023-05-29T08:13:15;4.90;;;1.70;;
69847;SDS011;57143;55.940;37.496;2023-05-29T08:15:43;5.50;;;1.90;;
69847;SDS011;57143;55.940;37.496;2023-05-29T08:18:10;6.68;;;1.42;;
69847;SDS011;57143;55.940;37.496;2023-05-29T08:20:38;4.85;;;1.45;;
69847;SDS011;57143;55.940;37.496;2023-05-29T08:23:05;5.20;;;1.20;;
69847;SDS011;57143;55.940;37.496;2023-05-29T08:25:32;4.30;;;1.60;;
69847;SDS011;57143;55.940;37.496;2023-05-29T08:27:59;4.90;;;1.63;;
69847;SDS011;57143;55.940;37.496;2023-05-29T08:30:26;9.45;;;1.67;;
69847;SDS011;57143;55.940;37.496;2023-05-29T08:32:55;4.75;;;1.73;;
69847;SDS011;57143;55.940;37.496;2023-05-29T08:35:22;5.13;;;1.70;;
69847;SDS011;57143;55.940;37.496;2023-05-29T08:37:50;4.80;;;1.40;;
69847;SDS011;57143;55.940;37.496;2023-05-29T08:40:17;5.15;;;1.40;;
69847;SDS011;57143;55.940;37.496;2023-05-29T08:42:45;5.38;;;1.67;;
69847;SDS011;57143;55.940;37.496;2023-05-29T08:45:14;5.25;;;1.50;;
69847;SDS011;57143;55.940;37.496;2023-05-29T08:47:42;4.37;;;1.50;;
69847;SDS011;57143;55.940;37.496;2023-05-29T08:50:11;4.55;;;1.58;;
69847;SDS011;57143;55.940;37.496;2023-05-29T08:52:41;4.40;;;1.50;;
69847;SDS011;57143;55.940;37.496;2023-05-29T08:55:09;5.38;;;1.33;;
69847;SDS011;57143;55.940;37.496;2023-05-29T08:57:37;4.72;;;1.35;;
69847;SDS011;57143;55.940;37.496;2023-05-29T09:00:05;8.17;;;1.90;;
69847;SDS011;57143;55.940;37.496;2023-05-29T09:02:38;4.95;;;1.48;;
69847;SDS011;57143;55.940;37.496;2023-05-29T09:05:05;4.43;;;1.40;;
69847;SDS011;57143;55.940;37.496;2023-05-29T09:07:35;7.40;;;1.38;;
69847;SDS011;57143;55.940;37.496;2023-05-29T09:10:04;5.30;;;1.50;;
69847;SDS011;57143;55.940;37.496;2023-05-29T09:12:32;5.13;;;1.37;;
69847;SDS011;57143;55.940;37.496;2023-05-29T09:15:00;4.80;;;1.38;;
69847;SDS011;57143;55.940;37.496;2023-05-29T09:17:32;4.30;;;1.27;;
69847;SDS011;57143;55.940;37.496;2023-05-29T09:20:00;4.97;;;1.30;;
69847;SDS011;57143;55.940;37.496;2023-05-29T09:22:30;5.38;;;1.45;;
69847;SDS011;57143;55.940;37.496;2023-05-29T09:24:59;4.87;;;1.80;;
69847;SDS011;57143;55.940;37.496;2023-05-29T09:27:27;4.25;;;1.20;;
69847;SDS011;57143;55.940;37.496;2023-05-29T09:29:54;4.20;;;1.20;;
69847;SDS011;57143;55.940;37.496;2023-05-29T09:32:21;6.28;;;1.38;;
69847;SDS011;57143;55.940;37.496;2023-05-29T09:34:49;3.92;;;1.20;;
69847;SDS011;57143;55.940;37.496;2023-05-29T09:37:21;7.40;;;1.37;;
69847;SDS011;57143;55.940;37.496;2023-05-29T09:39:48;4.70;;;1.20;;
69847;SDS011;57143;55.940;37.496;2023-05-29T09:42:18;10.00;;;1.58;;
69847;SDS011;57143;55.940;37.496;2023-05-29T09:44:49;4.57;;;1.17;;
69847;SDS011;57143;55.940;37.496;2023-05-29T09:47:19;6.93;;;1.17;;
69847;SDS011;57143;55.940;37.496;2023-05-29T09:49:47;5.40;;;1.00;;
69847;SDS011;57143;55.940;37.496;2023-05-29T09:52:15;6.68;;;1.23;;
69847;SDS011;57143;55.940;37.496;2023-05-29T09:54:49;4.70;;;1.38;;
69847;SDS011;57143;55.940;37.496;2023-05-29T09:57:19;5.25;;;1.27;;
69847;SDS011;57143;55.940;37.496;2023-05-29T09:59:49;4.50;;;1.00;;
69847;SDS011;57143;55.940;37.496;2023-05-29T10:02:19;4.47;;;1.27;;
69847;SDS011;57143;55.940;37.496;2023-05-29T10:04:49;5.78;;;1.33;;
69847;SDS011;57143;55.940;37.496;2023-05-29T10:07:19;4.88;;;1.42;;
69847;SDS011;57143;55.940;37.496;2023-05-29T10:09:53;4.85;;;1.10;;
69847;SDS011;57143;55.940;37.496;2023-05-29T10:12:27;5.38;;;1.20;;
69847;SDS011;57143;55.940;37.496;2023-05-29T10:14:57;4.70;;;1.30;;
69847;SDS011;57143;55.940;37.496;2023-05-29T10:17:26;5.80;;;1.10;;
69847;SDS011;57143;55.940;37.496;2023-05-29T10:19:59;4.45;;;1.40;;
69847;SDS011;57143;55.940;37.496;2023-05-29T10:22:30;4.07;;;1.25;;
69847;SDS011;57143;55.940;37.496;2023-05-29T10:24:58;4.75;;;1.50;;
69847;SDS011;57143;55.940;37.496;2023-05-29T10:27:28;4.97;;;1.20;;
69847;SDS011;57143;55.940;37.496;2023-05-29T10:29:56;5.35;;;1.40;;
69847;SDS011;57143;55.940;37.496;2023-05-29T10:32:32;5.30;;;1.25;;
69847;SDS011;57143;55.940;37.496;2023-05-29T10:35:11;5.55;;;1.55;;
69847;SDS011;57143;55.940;37.496;2023-05-29T10:37:42;6.28;;;1.40;;
69847;SDS011;57143;55.940;37.496;2023-05-29T10:40:15;6.87;;;1.30;;
69847;SDS011;57143;55.940;37.496;2023-05-29T10:42:52;4.90;;;1.20;;
69847;SDS011;57143;55.940;37.496;2023-05-29T10:51:08;4.95;;;1.20;;
69847;SDS011;57143;55.940;37.496;2023-05-29T10:53:50;4.90;;;1.10;;
69847;SDS011;57143;55.940;37.496;2023-05-29T10:56:20;4.20;;;1.35;;
69847;SDS011;57143;55.940;37.496;2023-05-29T10:58:54;5.10;;;1.38;;
69847;SDS011;57143;55.940;37.496;2023-05-29T11:01:23;4.40;;;1.13;;
69847;SDS011;57143;55.940;37.496;2023-05-29T11:03:51;4.85;;;1.23;;
69847;SDS011;57143;55.940;37.496;2023-05-29T11:06:19;6.17;;;1.60;;
69847;SDS011;57143;55.940;37.496;2023-05-29T11:08:53;5.47;;;1.40;;
69847;SDS011;57143;55.940;37.496;2023-05-29T11:11:30;4.93;;;1.40;;
69847;SDS011;57143;55.940;37.496;2023-05-29T11:14:03;5.03;;;1.48;;
69847;SDS011;57143;55.940;37.496;2023-05-29T11:16:36;5.55;;;1.40;;
69847;SDS011;57143;55.940;37.496;2023-05-29T11:19:04;4.67;;;1.10;;
69847;SDS011;57143;55.940;37.496;2023-05-29T11:21:33;7.15;;;1.50;;
69847;SDS011;57143;55.940;37.496;2023-05-29T11:24:13;6.10;;;1.40;;
69847;SDS011;57143;55.940;37.496;2023-05-29T11:26:47;5.22;;;1.20;;
69847;SDS011;57143;55.940;37.496;2023-05-29T11:29:16;4.00;;;1.05;;
69847;SDS011;57143;55.940;37.496;2023-05-29T11:31:47;6.50;;;1.30;;
69847;SDS011;57143;55.940;37.496;2023-05-29T11:34:22;5.57;;;1.20;;
69847;SDS011;57143;55.940;37.496;2023-05-29T11:36:51;4.97;;;1.40;;
69847;SDS011;57143;55.940;37.496;2023-05-29T11:39:18;6.45;;;1.20;;
69847;SDS011;57143;55.940;37.496;2023-05-29T11:41:49;4.07;;;1.20;;
69847;SDS011;57143;55.940;37.496;2023-05-29T11:44:18;4.57;;;1.10;;
69847;SDS011;57143;55.940;37.496;2023-05-29T11:46:46;6.43;;;1.75;;
69847;SDS011;57143;55.940;37.496;2023-05-29T11:49:13;10.55;;;1.50;;
69847;SDS011;57143;55.940;37.496;2023-05-29T11:51:41;3.80;;;1.00;;
69847;SDS011;57143;55.940;37.496;2023-05-29T11:54:11;6.13;;;1.10;;
69847;SDS011;57143;55.940;37.496;2023-05-29T11:56:39;6.67;;;1.50;;
69847;SDS011;57143;55.940;37.496;2023-05-29T11:59:10;4.47;;;1.25;;
69847;SDS011;57143;55.940;37.496;2023-05-29T12:01:39;4.50;;;1.27;;
69847;SDS011;57143;55.940;37.496;2023-05-29T12:06:51;4.85;;;1.40;;
69847;SDS011;57143;55.940;37.496;2023-05-29T12:09:27;4.00;;;1.10;;
69847;SDS011;57143;55.940;37.496;2023-05-29T12:12:00;5.25;;;1.50;;
69847;SDS011;57143;55.940;37.496;2023-05-29T12:14:28;4.97;;;1.30;;
69847;SDS011;57143;55.940;37.496;2023-05-29T12:16:57;5.30;;;1.38;;
69847;SDS011;57143;55.940;37.496;2023-05-29T12:19:24;4.38;;;1.30;;
69847;SDS011;57143;55.940;37.496;2023-05-29T12:21:52;4.20;;;1.30;;
69847;SDS011;57143;55.940;37.496;2023-05-29T12:24:19;5.63;;;1.27;;
69847;SDS011;57143;55.940;37.496;2023-05-29T12:26:46;4.22;;;1.33;;
69847;SDS011;57143;55.940;37.496;2023-05-29T12:29:14;4.30;;;1.50;;
69847;SDS011;57143;55.940;37.496;2023-05-29T12:31:41;7.18;;;1.55;;
69847;SDS011;57143;55.940;37.496;2023-05-29T12:34:10;6.37;;;1.37;;
69847;SDS011;57143;55.940;37.496;2023-05-29T12:36:40;5.78;;;1.50;;
69847;SDS011;57143;55.940;37.496;2023-05-29T12:39:08;9.07;;;1.58;;
69847;SDS011;57143;55.940;37.496;2023-05-29T12:41:36;4.78;;;1.20;;
69847;SDS011;57143;55.940;37.496;2023-05-29T12:44:05;5.30;;;1.52;;
69847;SDS011;57143;55.940;37.496;2023-05-29T12:46:37;6.27;;;1.40;;
69847;SDS011;57143;55.940;37.496;2023-05-29T12:49:13;5.85;;;1.30;;
69847;SDS011;57143;55.940;37.496;2023-05-29T12:51:41;6.93;;;1.30;;
69847;SDS011;57143;55.940;37.496;2023-05-29T12:54:09;7.25;;;1.50;;
69847;SDS011;57143;55.940;37.496;2023-05-29T12:56:37;4.15;;;1.30;;
69847;SDS011;57143;55.940;37.496;2023-05-29T12:59:06;7.70;;;1.50;;
69847;SDS011;57143;55.940;37.496;2023-05-29T13:01:33;7.43;;;1.40;;
69847;SDS011;57143;55.940;37.496;2023-05-29T13:04:01;5.38;;;1.52;;
69847;SDS011;57143;55.940;37.496;2023-05-29T13:06:30;4.20;;;1.30;;
69847;SDS011;57143;55.940;37.496;2023-05-29T13:08:57;4.28;;;1.10;;
69847;SDS011;57143;55.940;37.496;2023-05-29T13:11:24;4.50;;;1.40;;
69847;SDS011;57143;55.940;37.496;2023-05-29T13:13:52;4.30;;;1.33;;
69847;SDS011;57143;55.940;37.496;2023-05-29T13:16:19;4.72;;;1.35;;
69847;SDS011;57143;55.940;37.496;2023-05-29T13:18:46;5.43;;;1.33;;
69847;SDS011;57143;55.940;37.496;2023-05-29T13:21:13;5.03;;;1.60;;
69847;SDS011;57143;55.940;37.496;2023-05-29T13:23:42;5.43;;;1.40;;
69847;SDS011;57143;55.940;37.496;2023-05-29T13:26:09;5.53;;;1.55;;
69847;SDS011;57143;55.940;37.496;2023-05-29T13:28:37;4.50;;;1.40;;
69847;SDS011;57143;55.940;37.496;2023-05-29T13:31:04;5.97;;;2.05;;
69847;SDS011;57143;55.940;37.496;2023-05-29T13:33:31;4.38;;;1.20;;
69847;SDS011;57143;55.940;37.496;2023-05-29T13:35:58;7.80;;;2.13;;
69847;SDS011;57143;55.940;37.496;2023-05-29T13:38:25;5.60;;;1.55;;
69847;SDS011;57143;55.940;37.496;2023-05-29T13:40:54;5.47;;;1.35;;
69847;SDS011;57143;55.940;37.496;2023-05-29T13:43:21;5.30;;;1.40;;
69847;SDS011;57143;55.940;37.496;2023-05-29T13:45:48;6.20;;;1.42;;
69847;SDS011;57143;55.940;37.496;2023-05-29T13:48:16;13.77;;;1.83;;
69847;SDS011;57143;55.940;37.496;2023-05-29T13:50:43;5.63;;;1.30;;
69847;SDS011;57143;55.940;37.496;2023-05-29T13:53:10;5.85;;;1.52;;
69847;SDS011;57143;55.940;37.496;2023-05-29T13:55:37;4.70;;;1.30;;
69847;SDS011;57143;55.940;37.496;2023-05-29T13:58:06;5.72;;;1.50;;
69847;SDS011;57143;55.940;37.496;2023-05-29T14:00:33;5.83;;;1.50;;
69847;SDS011;57143;55.940;37.496;2023-05-29T14:03:00;6.63;;;1.33;;
69847;SDS011;57143;55.940;37.496;2023-05-29T14:05:27;5.13;;;1.75;;
69847;SDS011;57143;55.940;37.496;2023-05-29T14:07:54;5.63;;;1.58;;
69847;SDS011;57143;55.940;37.496;2023-05-29T14:10:22;5.20;;;1.27;;
69847;SDS011;57143;55.940;37.496;2023-05-29T14:12:49;5.07;;;1.40;;
69847;SDS011;57143;55.940;37.496;2023-05-29T14:15:18;5.75;;;1.60;;
69847;SDS011;57143;55.940;37.496;2023-05-29T14:17:45;7.45;;;1.35;;
69847;SDS011;57143;55.940;37.496;2023-05-29T14:20:13;6.90;;;1.60;;
69847;SDS011;57143;55.940;37.496;2023-05-29T14:22:40;4.97;;;1.40;;
69847;SDS011;57143;55.940;37.496;2023-05-29T14:25:08;5.70;;;1.70;;
69847;SDS011;57143;55.940;37.496;2023-05-29T14:27:35;4.40;;;1.40;;
69847;SDS011;57143;55.940;37.496;2023-05-29T14:30:03;5.60;;;1.70;;
69847;SDS011;57143;55.940;37.496;2023-05-29T14:32:35;5.80;;;1.70;;
69847;SDS011;57143;55.940;37.496;2023-05-29T14:35:02;5.57;;;1.50;;
69847;SDS011;57143;55.940;37.496;2023-05-29T14:37:32;5.00;;;1.50;;
69847;SDS011;57143;55.940;37.496;2023-05-29T14:39:59;5.88;;;1.30;;
69847;SDS011;57143;55.940;37.496;2023-05-29T14:42:26;5.78;;;1.27;;
69847;SDS011;57143;55.940;37.496;2023-05-29T14:44:54;5.20;;;1.38;;
69847;SDS011;57143;55.940;37.496;2023-05-29T14:47:21;5.72;;;1.50;;
69847;SDS011;57143;55.940;37.496;2023-05-29T14:49:50;7.00;;;1.20;;
69847;SDS011;57143;55.940;37.496;2023-05-29T14:52:17;5.00;;;1.30;;
69847;SDS011;57143;55.940;37.496;2023-05-29T14:54:44;4.57;;;1.50;;